Huvudsida
METAR-TAF:

METAR-TAF

Flygplatser :

Zanjan, Iran

latitud: 36-41N, longitud: 048-29E, höjd: 1663 m

Aktuellt väderrapport

Denna rapport gjordes för 49 minuter sedan, klockan 13:00 UTC
Vind 6 kt från syd/sydväst
Temperatur 14°C
Fuktighet 28%
Tryck 1024 hPa
Sikt: 8000 m

METAR: OITZ 121300Z 21006KT 8000 NSC 14/M04 Q1024

Tid: 17:19 (13:49 UTC)


TAF: saknas

Aktuella väderrapporter och prognoser från 4000 flygplatser (METAR- och TAF-rapporter).

De tillgängliga stationerna syns som gula och röda prickar på kartan.

För musen över prickarna för att se namnen på stationerna.

Klicka sedan för att få väderrapporter och prognoser.

För att ändra kartan: Klicka på de gröna knapparna med ett svart kors på för att zooma in; den gröna knappen med ett streck på för att zooma ut; eller på de gröna pilarna för angränsande kartor.


METAR-TAF: